Time;durP1;ratioP1;P1;durP2;ratioP2;P2;SDS_P1;SDS_P2;PMS_P1;PMS_P2;Temp;Humidity;BMP_temperature;BMP_pressure;BME280_temperature;BME280_humidity;BME280_pressure;Samples;Min_cycle;Max_cycle;Signal;HPM_P1;HPM_P2
2023/12/01 00:00:42;;;;;;;84.25;48.35;;;2.70;68.30;;;;;;5093085;28;20409;-71
2023/12/01 00:03:08;;;;;;;87.80;49.03;;;2.70;69.00;;;;;;5093922;28;20378;-72
2023/12/01 00:05:33;;;;;;;90.18;51.13;;;2.60;69.30;;;;;;5094080;28;20370;-72
2023/12/01 00:07:59;;;;;;;82.38;49.40;;;2.30;72.20;;;;;;5094045;28;20382;-72
2023/12/01 00:10:24;;;;;;;78.82;44.92;;;2.40;75.30;;;;;;5094383;28;20416;-72
2023/12/01 00:12:50;;;;;;;74.78;45.13;;;2.60;67.40;;;;;;5095088;28;20459;-72
2023/12/01 00:15:15;;;;;;;90.40;48.20;;;2.70;70.00;;;;;;5096487;28;20727;-72
2023/12/01 00:17:41;;;;;;;82.43;45.70;;;2.50;66.40;;;;;;5096844;28;20840;-72
2023/12/01 00:20:07;;;;;;;81.13;45.10;;;2.30;71.10;;;;;;5095904;28;20398;-72
2023/12/01 00:22:33;;;;;;;88.38;48.58;;;2.60;69.00;;;;;;5094495;28;20386;-73
2023/12/01 00:24:58;;;;;;;88.60;49.90;;;2.40;69.40;;;;;;5093437;28;20486;-73
2023/12/01 00:27:24;;;;;;;86.70;48.20;;;2.20;71.10;;;;;;5092805;28;20405;-71
2023/12/01 00:29:49;;;;;;;79.70;45.65;;;2.30;72.10;;;;;;5092865;28;20473;-72
2023/12/01 00:32:15;;;;;;;71.97;42.58;;;2.70;67.60;;;;;;5092590;28;20434;-71
2023/12/01 00:34:41;;;;;;;76.30;43.63;;;2.90;60.60;;;;;;5092937;28;20389;-71
2023/12/01 00:37:06;;;;;;;77.30;44.40;;;3.00;57.00;;;;;;5092613;28;20799;-71
2023/12/01 00:39:32;;;;;;;80.50;44.77;;;3.10;55.10;;;;;;5092501;28;20888;-71
2023/12/01 00:41:57;;;;;;;81.07;47.30;;;3.00;55.90;;;;;;5092275;28;20386;-71
2023/12/01 00:44:23;;;;;;;87.33;48.67;;;3.00;56.80;;;;;;5092426;28;20385;-71
2023/12/01 00:46:48;;;;;;;83.70;46.47;;;3.00;56.60;;;;;;5092536;28;20860;-71
2023/12/01 00:49:14;;;;;;;84.40;46.05;;;3.00;56.80;;;;;;5092313;28;20412;-71
2023/12/01 00:51:41;;;;;;;78.63;47.00;;;3.00;56.90;;;;;;5091994;28;20930;-71
2023/12/01 00:54:07;;;;;;;79.93;46.03;;;3.00;57.00;;;;;;5092149;28;20397;-70
2023/12/01 00:56:33;;;;;;;78.70;45.80;;;3.10;54.80;;;;;;5091765;28;20378;-71
2023/12/01 00:58:58;;;;;;;88.00;47.00;;;3.10;54.20;;;;;;5074145;28;20459;-71
2023/12/01 01:01:24;;;;;;;78.72;45.83;;;3.00;55.60;;;;;;5073824;28;20390;-71
2023/12/01 01:03:49;;;;;;;81.53;45.05;;;2.90;56.40;;;;;;5092106;28;20374;-71
2023/12/01 01:06:15;;;;;;;74.95;43.90;;;3.10;54.90;;;;;;5092165;28;20726;-71
2023/12/01 01:08:40;;;;;;;86.53;47.97;;;3.20;53.00;;;;;;5091943;28;20410;-71
2023/12/01 01:11:06;;;;;;;76.37;45.00;;;3.00;54.20;;;;;;5092211;28;20417;-71
2023/12/01 01:13:32;;;;;;;73.37;43.93;;;2.80;55.90;;;;;;5091834;28;20374;-71
2023/12/01 01:15:57;;;;;;;73.95;43.75;;;2.90;53.40;;;;;;5092079;28;20745;-71
2023/12/01 01:18:23;;;;;;;75.25;43.67;;;3.00;52.90;;;;;;5091370;28;20389;-70
2023/12/01 01:20:49;;;;;;;77.07;44.25;;;3.00;52.50;;;;;;5091632;28;20430;-70
2023/12/01 01:23:16;;;;;;;71.88;43.42;;;3.10;52.10;;;;;;5091502;28;20923;-72
2023/12/01 01:25:42;;;;;;;75.93;43.95;;;2.80;54.40;;;;;;5091830;28;20466;-72
2023/12/01 01:28:08;;;;;;;75.33;44.87;;;3.00;53.00;;;;;;5091406;28;20512;-73
2023/12/01 01:30:33;;;;;;;68.25;41.28;;;3.10;53.50;;;;;;5091732;28;20389;-70
2023/12/01 01:32:59;;;;;;;67.75;40.65;;;2.70;52.40;;;;;;5091674;28;20386;-72
2023/12/01 01:35:25;;;;;;;71.40;40.83;;;2.50;55.10;;;;;;5092039;28;20374;-71
2023/12/01 01:37:50;;;;;;;76.28;43.25;;;2.70;53.90;;;;;;5091299;28;20388;-71
2023/12/01 01:40:16;;;;;;;69.50;42.60;;;2.80;53.60;;;;;;5091185;28;20406;-71
2023/12/01 01:42:41;;;;;;;73.10;43.70;;;2.90;54.00;;;;;;5091160;28;20404;-71
2023/12/01 01:45:07;;;;;;;73.60;43.23;;;2.80;54.20;;;;;;5091198;28;20853;-71
2023/12/01 01:47:34;;;;;;;78.80;44.70;;;2.90;54.10;;;;;;5091201;28;20370;-71
2023/12/01 01:50:01;;;;;;;80.70;45.15;;;2.90;53.70;;;;;;5091286;28;20465;-71
2023/12/01 01:52:27;;;;;;;70.22;43.65;;;2.80;53.70;;;;;;5091380;28;20402;-71
2023/12/01 01:54:52;;;;;;;70.45;42.03;;;2.90;52.90;;;;;;5090888;28;20464;-71
2023/12/01 01:57:18;;;;;;;73.85;42.72;;;3.10;49.90;;;;;;5090988;28;20751;-71
2023/12/01 01:59:44;;;;;;;74.10;43.20;;;3.20;48.50;;;;;;5091013;28;20460;-71
2023/12/01 02:02:09;;;;;;;69.77;43.67;;;3.20;47.90;;;;;;5090851;28;20844;-71
2023/12/01 02:04:35;;;;;;;71.93;43.60;;;3.00;51.00;;;;;;5090843;28;20409;-71
2023/12/01 02:07:01;;;;;;;74.20;45.75;;;2.90;53.30;;;;;;5089930;28;20386;-71
2023/12/01 02:09:27;;;;;;;74.55;42.65;;;2.80;54.80;;;;;;5091027;28;20374;-71
2023/12/01 02:11:53;;;;;;;69.10;42.22;;;3.00;53.80;;;;;;5090589;28;20546;-71
2023/12/01 02:14:19;;;;;;;71.00;41.97;;;3.00;53.40;;;;;;5090584;28;20486;-71
2023/12/01 02:16:47;;;;;;;69.90;42.43;;;3.10;53.00;;;;;;5090740;28;20401;-71
2023/12/01 02:19:13;;;;;;;72.30;41.00;;;3.10;53.00;;;;;;5090737;28;20402;-71
2023/12/01 02:21:44;;;;;;;68.88;42.63;;;3.10;52.60;;;;;;5090758;28;20378;-71
2023/12/01 02:24:09;;;;;;;77.95;42.65;;;3.30;49.80;;;;;;5090675;28;20385;-71
2023/12/01 02:26:35;;;;;;;69.67;41.77;;;3.40;47.90;;;;;;5090645;28;20378;-71
2023/12/01 02:29:04;;;;;;;70.03;42.70;;;3.40;46.70;;;;;;5090663;28;20914;-71
2023/12/01 02:31:29;;;;;;;73.70;44.25;;;3.40;46.90;;;;;;5090703;28;20388;-71
2023/12/01 02:33:55;;;;;;;75.80;45.00;;;3.10;46.70;;;;;;5090778;28;20397;-71
2023/12/01 02:36:21;;;;;;;77.60;45.70;;;3.00;48.80;;;;;;5090674;28;20382;-71
2023/12/01 02:38:46;;;;;;;72.63;44.73;;;2.80;50.90;;;;;;5090409;28;20424;-71
2023/12/01 02:41:13;;;;;;;79.40;46.77;;;3.00;50.10;;;;;;5090224;28;20382;-71
2023/12/01 02:43:38;;;;;;;78.65;46.97;;;3.00;50.00;;;;;;5090411;28;20787;-72
2023/12/01 02:46:04;;;;;;;76.43;46.27;;;3.00;51.20;;;;;;5090667;28;20382;-72
2023/12/01 02:48:30;;;;;;;74.45;43.70;;;3.00;49.80;;;;;;5092134;28;20383;-72
2023/12/01 02:50:55;;;;;;;74.25;45.75;;;3.20;47.20;;;;;;5092456;28;20382;-72
2023/12/01 02:53:21;;;;;;;75.63;46.95;;;3.10;46.70;;;;;;5090929;28;20378;-72
2023/12/01 02:55:46;;;;;;;76.20;45.15;;;3.00;47.80;;;;;;5090453;28;20378;-72
2023/12/01 02:58:12;;;;;;;75.13;45.92;;;3.00;48.40;;;;;;5090288;28;20779;-72
2023/12/01 03:00:37;;;;;;;75.87;45.53;;;3.00;49.10;;;;;;5089832;28;20761;-71
2023/12/01 03:03:03;;;;;;;74.60;44.73;;;3.00;49.10;;;;;;5089795;28;20432;-71
2023/12/01 03:05:28;;;;;;;71.60;43.80;;;3.00;50.20;;;;;;5089811;28;20697;-71
2023/12/01 03:07:54;;;;;;;73.67;44.60;;;3.10;49.20;;;;;;5089925;28;20382;-72
2023/12/01 03:10:20;;;;;;;69.00;43.08;;;3.10;48.80;;;;;;5089868;28;20382;-71
2023/12/01 03:12:45;;;;;;;73.00;44.92;;;3.00;47.90;;;;;;5089866;28;20382;-72
2023/12/01 03:15:13;;;;;;;74.63;45.03;;;2.80;50.70;;;;;;5089810;28;20386;-71
2023/12/01 03:17:39;;;;;;;76.15;44.70;;;2.90;49.20;;;;;;5090213;28;20385;-71
2023/12/01 03:20:10;;;;;;;70.25;42.67;;;3.00;48.90;;;;;;5093836;28;20891;-71
2023/12/01 03:22:37;;;;;;;72.30;42.47;;;3.00;48.70;;;;;;5093836;28;20406;-71
2023/12/01 03:25:03;;;;;;;71.18;43.05;;;3.00;48.30;;;;;;5093507;28;20409;-71
2023/12/01 03:27:28;;;;;;;64.13;40.78;;;3.00;47.80;;;;;;5093664;28;20848;-71
2023/12/01 03:29:54;;;;;;;72.18;44.67;;;3.00;47.40;;;;;;5093662;28;20381;-71
2023/12/01 03:32:20;;;;;;;75.07;46.90;;;2.90;47.80;;;;;;5093330;28;20508;-72
2023/12/01 03:34:46;;;;;;;72.18;45.78;;;2.80;47.90;;;;;;5093461;28;20408;-72
2023/12/01 03:37:11;;;;;;;79.28;47.72;;;2.80;48.60;;;;;;5093304;28;20390;-72
2023/12/01 03:39:37;;;;;;;81.82;48.97;;;2.70;48.80;;;;;;5093332;28;20867;-72
2023/12/01 03:42:04;;;;;;;78.82;47.33;;;2.70;50.10;;;;;;5075597;28;20779;-71
2023/12/01 03:44:29;;;;;;;79.43;46.97;;;2.90;48.70;;;;;;5095042;28;20469;-72
2023/12/01 03:46:55;;;;;;;80.43;47.83;;;3.00;49.10;;;;;;5094950;28;20815;-72
2023/12/01 03:49:21;;;;;;;82.63;47.60;;;3.00;49.50;;;;;;5094661;28;20382;-71
2023/12/01 03:51:46;;;;;;;88.73;50.27;;;3.10;47.90;;;;;;5093454;28;20401;-71
2023/12/01 03:54:12;;;;;;;83.80;48.27;;;2.90;49.60;;;;;;5093087;28;20755;-70
2023/12/01 03:56:38;;;;;;;77.83;46.23;;;3.00;49.70;;;;;;5093517;28;20744;-71
2023/12/01 03:59:09;;;;;;;90.63;50.03;;;2.90;48.90;;;;;;5093544;28;20772;-70
2023/12/01 04:01:36;;;;;;;87.55;49.38;;;2.70;48.80;;;;;;5074994;28;20507;-70
2023/12/01 04:04:01;;;;;;;83.45;48.25;;;2.70;50.50;;;;;;5093101;28;20383;-71
2023/12/01 04:06:27;;;;;;;81.77;47.13;;;2.60;50.30;;;;;;5093433;28;20779;-72
2023/12/01 04:08:53;;;;;;;83.70;47.83;;;2.60;51.40;;;;;;5094207;28;20390;-72
2023/12/01 04:11:19;;;;;;;81.75;45.47;;;2.60;52.20;;;;;;5093926;28;20465;-72
2023/12/01 04:13:44;;;;;;;85.80;48.60;;;2.90;50.30;;;;;;5094254;28;20508;-73
2023/12/01 04:16:10;;;;;;;94.10;50.03;;;2.70;50.70;;;;;;5094245;28;20984;-73
2023/12/01 04:18:35;;;;;;;82.05;47.00;;;2.70;50.20;;;;;;5093810;28;20374;-73
2023/12/01 04:21:08;;;;;;;82.15;46.55;;;2.80;48.80;;;;;;5094048;28;20435;-72
2023/12/01 04:23:34;;;;;;;83.78;46.10;;;2.90;48.40;;;;;;5093715;28;20588;-73
2023/12/01 04:26:00;;;;;;;85.50;47.10;;;2.80;48.70;;;;;;5093635;28;20472;-70
2023/12/01 04:28:26;;;;;;;83.13;46.75;;;2.80;51.00;;;;;;5093289;28;20389;-72
2023/12/01 04:30:51;;;;;;;87.30;47.37;;;2.70;50.80;;;;;;5092244;28;20382;-72
2023/12/01 04:33:17;;;;;;;89.70;48.50;;;2.60;51.50;;;;;;5092971;28;20557;-70
2023/12/01 04:35:42;;;;;;;83.13;45.15;;;2.40;52.10;;;;;;5092429;28;20469;-71
2023/12/01 04:38:09;;;;;;;83.10;45.00;;;2.40;52.00;;;;;;5092386;28;20426;-71
2023/12/01 04:40:36;;;;;;;77.63;43.67;;;2.50;51.60;;;;;;5092676;28;20402;-71
2023/12/01 04:43:03;;;;;;;76.60;42.92;;;2.80;50.30;;;;;;5092599;28;20819;-72
2023/12/01 04:45:31;;;;;;;70.97;41.75;;;2.70;48.70;;;;;;5092692;28;20443;-71
2023/12/01 04:47:57;;;;;;;74.60;41.03;;;2.60;48.50;;;;;;5092762;28;20376;-71
2023/12/01 04:50:27;;;;;;;70.97;40.10;;;2.50;50.00;;;;;;5092622;28;20382;-71
2023/12/01 04:52:58;;;;;;;64.63;38.60;;;2.40;50.70;;;;;;5092441;28;20382;-71
2023/12/01 04:55:26;;;;;;;66.80;39.08;;;2.40;51.40;;;;;;5093870;28;20405;-71
2023/12/01 04:57:52;;;;;;;70.18;40.38;;;2.60;50.20;;;;;;5092355;28;20385;-72
2023/12/01 05:00:20;;;;;;;69.53;39.03;;;2.60;51.20;;;;;;5092781;28;20420;-71
2023/12/01 05:02:58;;;;;;;67.50;38.42;;;2.70;51.60;;;;;;5093040;28;20377;-72
2023/12/01 05:05:25;;;;;;;65.23;37.33;;;2.40;51.60;;;;;;5092692;28;20379;-72
2023/12/01 05:07:52;;;;;;;68.10;37.35;;;2.40;52.20;;;;;;5092183;28;20379;-71
2023/12/01 05:10:20;;;;;;;63.05;36.50;;;2.30;53.80;;;;;;5073544;28;20815;-70
2023/12/01 05:12:50;;;;;;;67.25;37.03;;;2.40;53.10;;;;;;5091856;28;20410;-70
2023/12/01 05:15:21;;;;;;;59.90;35.83;;;2.40;53.30;;;;;;5091710;28;20900;-70
2023/12/01 05:17:53;;;;;;;58.75;35.15;;;2.40;53.20;;;;;;5091472;28;20440;-70
2023/12/01 05:20:19;;;;;;;56.53;34.38;;;2.60;51.50;;;;;;5091381;28;20417;-70
2023/12/01 05:22:46;;;;;;;53.78;32.78;;;2.50;51.20;;;;;;5091346;28;20460;-70
2023/12/01 05:25:13;;;;;;;55.63;33.28;;;2.70;51.00;;;;;;5091224;28;20492;-70
2023/12/01 05:28:00;;;;;;;55.40;32.35;;;2.90;48.80;;;;;;5093478;28;20420;-71
2023/12/01 05:30:30;;;;;;;57.90;34.63;;;3.10;44.50;;;;;;5091437;28;20401;-71
2023/12/01 05:32:58;;;;;;;53.97;34.17;;;2.80;47.30;;;;;;5091348;28;20537;-71
2023/12/01 05:35:24;;;;;;;52.42;32.70;;;2.70;48.70;;;;;;5091555;28;20919;-71
2023/12/01 05:37:51;;;;;;;51.42;31.75;;;2.70;49.20;;;;;;5091313;28;20397;-71
2023/12/01 05:40:31;;;;;;;49.88;31.13;;;2.70;49.10;;;;;;5091392;28;20398;-71
2023/12/01 05:42:58;;;;;;;53.60;32.63;;;2.70;47.40;;;;;;5090981;28;20401;-71
2023/12/01 05:45:26;;;;;;;50.77;30.73;;;2.50;49.20;;;;;;5091014;28;20370;-72
2023/12/01 05:47:53;;;;;;;49.08;30.60;;;2.50;50.40;;;;;;5090682;28;20377;-71
2023/12/01 05:50:25;;;;;;;52.25;32.63;;;2.60;50.40;;;;;;5090967;28;20844;-71
2023/12/01 05:52:53;;;;;;;48.07;30.70;;;2.80;48.80;;;;;;5090907;28;20378;-71
2023/12/01 05:55:21;;;;;;;49.97;30.00;;;2.80;48.10;;;;;;5102836;22;20840;-74
2023/12/01 05:57:51;;;;;;;46.28;29.80;;;2.80;47.80;;;;;;5091302;28;20374;-75
2023/12/01 06:00:18;;;;;;;49.15;30.73;;;3.20;44.60;;;;;;5091082;28;20424;-74
2023/12/01 06:02:45;;;;;;;46.55;29.08;;;3.10;44.80;;;;;;5090751;28;20386;-75
2023/12/01 06:05:11;;;;;;;47.63;29.83;;;2.90;45.70;;;;;;5090703;28;20461;-75
2023/12/01 06:07:37;;;;;;;48.85;30.58;;;2.90;47.20;;;;;;5090709;28;20463;-76
2023/12/01 06:10:06;;;;;;;46.22;28.88;;;2.90;46.40;;;;;;5090938;28;20424;-75
2023/12/01 06:12:33;;;;;;;50.08;30.70;;;3.10;47.10;;;;;;5091178;28;20459;-75
2023/12/01 06:14:59;;;;;;;52.85;31.15;;;3.00;45.60;;;;;;5092152;28;20447;-76
2023/12/01 06:17:25;;;;;;;47.47;30.07;;;3.00;45.10;;;;;;5090774;28;20374;-75
2023/12/01 06:19:50;;;;;;;46.00;29.27;;;2.90;46.80;;;;;;5090805;28;20412;-74
2023/12/01 06:22:16;;;;;;;48.08;30.60;;;3.00;47.70;;;;;;5090493;28;20398;-75
2023/12/01 06:24:42;;;;;;;48.45;30.55;;;2.90;46.80;;;;;;5090405;28;20390;-74
2023/12/01 06:27:07;;;;;;;47.03;28.80;;;2.70;48.30;;;;;;5090035;28;20441;-75
2023/12/01 06:29:34;;;;;;;44.50;28.90;;;2.80;48.10;;;;;;5090431;28;20499;-74
2023/12/01 06:32:00;;;;;;;42.80;28.48;;;3.00;48.70;;;;;;5090414;28;20808;-75
2023/12/01 06:34:25;;;;;;;45.55;29.48;;;3.30;48.20;;;;;;5090518;28;20420;-74
2023/12/01 06:36:51;;;;;;;46.67;29.77;;;3.40;44.90;;;;;;5091705;28;20816;-74
2023/12/01 06:39:16;;;;;;;44.97;29.95;;;3.40;44.30;;;;;;5090779;28;20394;-75
2023/12/01 06:41:42;;;;;;;46.87;29.60;;;3.40;46.10;;;;;;5089912;28;20824;-75
2023/12/01 06:44:09;;;;;;;48.67;32.20;;;3.30;45.70;;;;;;5089058;28;20473;-75
2023/12/01 06:46:35;;;;;;;46.53;30.67;;;3.20;47.50;;;;;;5084253;28;20458;-76
2023/12/01 06:49:00;;;;;;;47.27;30.80;;;2.90;50.10;;;;;;5080465;28;20398;-75
2023/12/01 06:51:26;;;;;;;45.10;30.00;;;3.00;49.70;;;;;;5089921;28;20456;-74
2023/12/01 06:53:52;;;;;;;44.05;29.00;;;2.90;51.60;;;;;;5089743;28;20408;-73
2023/12/01 06:56:17;;;;;;;44.08;27.80;;;2.90;50.80;;;;;;5072380;28;20520;-74
2023/12/01 06:58:43;;;;;;;43.10;28.00;;;2.70;51.50;;;;;;5072147;28;20414;-74
2023/12/01 07:01:11;;;;;;;38.40;26.77;;;2.80;50.40;;;;;;5081022;28;20400;-74
2023/12/01 07:03:37;;;;;;;40.45;26.20;;;2.70;51.20;;;;;;5088537;28;20394;-75
2023/12/01 07:06:04;;;;;;;41.85;27.20;;;2.70;51.70;;;;;;5089980;28;20447;-75
2023/12/01 07:08:29;;;;;;;35.75;24.42;;;2.80;53.50;;;;;;5090057;28;20743;-74
2023/12/01 07:10:55;;;;;;;30.85;20.92;;;2.90;50.70;;;;;;5088549;28;20492;-73
2023/12/01 07:13:21;;;;;;;33.93;22.70;;;3.10;48.10;;;;;;5052093;28;20410;-74
2023/12/01 07:15:47;;;;;;;31.48;21.00;;;3.00;47.30;;;;;;5076782;28;20484;-74
2023/12/01 07:18:13;;;;;;;33.13;21.87;;;3.10;49.90;;;;;;5092964;28;20413;-73
2023/12/01 07:20:38;;;;;;;31.48;20.02;;;3.10;48.30;;;;;;5099012;28;20413;-73
2023/12/01 07:23:05;;;;;;;34.00;22.95;;;3.20;47.50;;;;;;5085866;28;20398;-75
2023/12/01 07:25:30;;;;;;;31.58;20.75;;;3.10;49.30;;;;;;5079575;28;20985;-73
2023/12/01 07:27:58;;;;;;;26.67;18.40;;;3.00;49.20;;;;;;5094532;28;20390;-76
2023/12/01 07:30:25;;;;;;;32.20;20.47;;;3.00;48.00;;;;;;5091696;28;20857;-75
2023/12/01 07:32:52;;;;;;;28.90;19.97;;;3.00;49.30;;;;;;5090223;28;20467;-75
2023/12/01 07:35:18;;;;;;;29.10;19.60;;;3.00;48.00;;;;;;5091636;28;20381;-75
2023/12/01 07:37:45;;;;;;;29.55;19.60;;;3.00;48.70;;;;;;5095129;28;20398;-73
2023/12/01 07:40:23;;;;;;;28.30;18.67;;;2.90;48.30;;;;;;5107688;28;20401;-73
2023/12/01 07:42:50;;;;;;;29.00;18.40;;;2.90;47.40;;;;;;5111499;28;20382;-74
2023/12/01 07:45:19;;;;;;;30.23;18.50;;;2.90;47.40;;;;;;5095233;28;20389;-72
2023/12/01 07:47:48;;;;;;;27.20;18.30;;;2.90;46.80;;;;;;5089230;28;20397;-74
2023/12/01 07:50:15;;;;;;;28.98;19.10;;;2.90;46.80;;;;;;5090688;28;20393;-75
2023/12/01 07:52:44;;;;;;;30.55;19.60;;;2.80;47.60;;;;;;5091630;28;20467;-75
2023/12/01 07:55:10;;;;;;;27.10;18.23;;;2.80;49.40;;;;;;5092105;28;20386;-72
2023/12/01 07:57:36;;;;;;;30.07;19.87;;;2.70;49.30;;;;;;5069813;28;20456;-75
2023/12/01 08:00:03;;;;;;;35.00;20.38;;;2.70;50.20;;;;;;5090316;28;20492;-76
2023/12/01 08:02:28;;;;;;;33.47;21.05;;;2.80;50.30;;;;;;5092066;28;20370;-75
2023/12/01 08:04:54;;;;;;;28.80;19.42;;;2.90;49.80;;;;;;5086165;28;20752;-75
2023/12/01 08:07:19;;;;;;;32.05;20.00;;;3.00;46.90;;;;;;5076511;28;20481;-79
2023/12/01 08:09:45;;;;;;;34.47;21.47;;;3.00;45.70;;;;;;5095240;28;20827;-76
2023/12/01 08:12:10;;;;;;;35.30;21.87;;;2.90;46.00;;;;;;5094689;28;20382;-77
2023/12/01 08:14:36;;;;;;;42.27;25.90;;;2.80;47.10;;;;;;5078892;28;20394;-74
2023/12/01 08:17:02;;;;;;;36.87;24.67;;;2.80;48.80;;;;;;5102973;28;20530;-75
2023/12/01 08:19:27;;;;;;;46.53;25.85;;;2.60;50.10;;;;;;5101750;28;20406;-76
2023/12/01 08:21:53;;;;;;;42.72;25.70;;;2.60;49.60;;;;;;5097885;28;20389;-78
2023/12/01 08:24:20;;;;;;;44.20;26.80;;;2.70;49.40;;;;;;5095027;28;20685;-75
2023/12/01 08:26:47;;;;;;;43.70;27.48;;;2.60;50.90;;;;;;5094811;28;20401;-75
2023/12/01 08:29:12;;;;;;;48.83;27.63;;;2.70;51.10;;;;;;5094114;28;20389;-76
2023/12/01 08:31:39;;;;;;;41.97;25.97;;;2.60;52.60;;;;;;5095063;28;20378;-76
2023/12/01 08:34:07;;;;;;;40.03;24.02;;;2.60;50.50;;;;;;5076442;28;20431;-75
2023/12/01 08:36:34;;;;;;;37.47;23.40;;;2.70;48.00;;;;;;5094594;28;20419;-73
2023/12/01 08:39:00;;;;;;;42.35;25.55;;;2.60;48.00;;;;;;5095061;28;20398;-75
2023/12/01 08:41:26;;;;;;;39.97;24.27;;;2.40;49.90;;;;;;5093880;28;20374;-76
2023/12/01 08:43:51;;;;;;;35.55;22.17;;;2.30;52.80;;;;;;5093619;28;20833;-74
2023/12/01 08:46:17;;;;;;;36.42;23.20;;;2.40;51.10;;;;;;5093463;28;20385;-74
2023/12/01 08:48:43;;;;;;;32.40;21.63;;;2.40;51.90;;;;;;5093848;28;20381;-76
2023/12/01 08:51:08;;;;;;;32.00;19.90;;;2.40;50.20;;;;;;5093132;28;20384;-76
2023/12/01 08:53:34;;;;;;;31.13;19.98;;;2.50;49.00;;;;;;5093450;28;20453;-75
2023/12/01 08:55:59;;;;;;;29.30;19.55;;;2.40;49.20;;;;;;5093908;28;20764;-75
2023/12/01 08:58:25;;;;;;;27.38;18.92;;;2.20;50.30;;;;;;5093506;28;20388;-76
2023/12/01 09:00:51;;;;;;;25.80;16.10;;;2.40;49.90;;;;;;5092958;28;20410;-75
2023/12/01 09:03:16;;;;;;;25.23;16.57;;;2.40;47.90;;;;;;5093299;28;20447;-75
2023/12/01 09:05:42;;;;;;;23.80;15.73;;;2.40;49.00;;;;;;5093214;28;20384;-75
2023/12/01 09:08:08;;;;;;;23.52;15.30;;;2.40;47.60;;;;;;5093144;28;20440;-75
2023/12/01 09:10:33;;;;;;;25.77;17.00;;;2.50;46.70;;;;;;5093052;28;20422;-76
2023/12/01 09:12:59;;;;;;;23.73;15.23;;;2.40;47.00;;;;;;5093086;28;20382;-75
2023/12/01 09:15:25;;;;;;;25.77;17.13;;;2.40;46.20;;;;;;5093415;28;20404;-74
2023/12/01 09:17:54;;;;;;;31.90;17.67;;;2.40;47.30;;;;;;5074311;28;20397;-75
2023/12/01 09:20:20;;;;;;;25.60;16.88;;;2.40;47.70;;;;;;5092601;28;20972;-76
2023/12/01 09:22:46;;;;;;;28.38;16.67;;;2.20;49.50;;;;;;5092287;28;20383;-75
2023/12/01 09:25:11;;;;;;;20.40;14.27;;;2.10;49.90;;;;;;5091917;28;20379;-76
2023/12/01 09:27:37;;;;;;;21.33;14.82;;;2.20;48.60;;;;;;5092431;28;20982;-76
2023/12/01 09:30:08;;;;;;;19.23;13.83;;;2.20;47.90;;;;;;5092018;28;20393;-75
2023/12/01 09:32:34;;;;;;;20.42;14.18;;;2.30;48.00;;;;;;5092404;28;20502;-76
2023/12/01 09:34:59;;;;;;;20.90;13.77;;;2.30;48.90;;;;;;5092273;28;20437;-75
2023/12/01 09:37:25;;;;;;;20.30;13.97;;;2.40;46.70;;;;;;5092331;28;20382;-75
2023/12/01 09:39:51;;;;;;;18.00;13.03;;;2.40;46.80;;;;;;5092166;28;20404;-77
2023/12/01 09:42:19;;;;;;;21.48;13.98;;;2.10;47.90;;;;;;5092425;28;20702;-75
2023/12/01 09:44:45;;;;;;;20.37;14.57;;;2.00;48.90;;;;;;5092100;28;20755;-75
2023/12/01 09:47:12;;;;;;;18.23;12.80;;;1.90;50.40;;;;;;5092096;28;20382;-77
2023/12/01 09:49:39;;;;;;;19.60;13.32;;;2.00;50.30;;;;;;5092581;28;20416;-77
2023/12/01 09:52:05;;;;;;;15.47;11.90;;;2.20;48.80;;;;;;5091975;28;20499;-77
2023/12/01 09:54:31;;;;;;;17.90;13.20;;;2.40;47.50;;;;;;5092186;28;20394;-76
2023/12/01 09:56:57;;;;;;;18.63;13.40;;;2.40;48.00;;;;;;5093153;28;20386;-76
2023/12/01 09:59:23;;;;;;;22.05;14.20;;;2.40;48.20;;;;;;5092353;28;20401;-76
2023/12/01 10:01:50;;;;;;;21.10;13.10;;;2.30;47.10;;;;;;5097237;28;20688;-77
2023/12/01 10:04:16;;;;;;;19.13;13.35;;;2.20;48.50;;;;;;5099939;28;20386;-75
2023/12/01 10:06:41;;;;;;;24.00;14.55;;;2.40;47.10;;;;;;5095943;28;20381;-77
2023/12/01 10:09:10;;;;;;;19.77;13.80;;;2.80;45.80;;;;;;5076539;28;20911;-74
2023/12/01 10:11:36;;;;;;;22.20;15.35;;;3.00;43.10;;;;;;5095423;28;20431;-76
2023/12/01 10:14:07;;;;;;;23.25;15.07;;;2.70;45.40;;;;;;5095369;28;20787;-76
2023/12/01 10:16:35;;;;;;;23.30;15.52;;;2.50;44.20;;;;;;5093943;28;20381;-76
2023/12/01 10:19:04;;;;;;;23.60;16.58;;;2.50;45.60;;;;;;5092609;28;20413;-76
2023/12/01 10:21:43;;;;;;;24.02;16.02;;;2.40;45.60;;;;;;5092661;28;20381;-75
2023/12/01 10:24:16;;;;;;;23.83;15.88;;;2.20;44.80;;;;;;5091519;28;20378;-77
2023/12/01 10:26:46;;;;;;;24.02;17.20;;;2.30;45.80;;;;;;5095334;28;20389;-76
2023/12/01 10:29:28;;;;;;;27.52;18.20;;;2.40;45.60;;;;;;5098779;28;20385;-76
2023/12/01 10:31:55;;;;;;;25.50;17.67;;;2.40;46.60;;;;;;5097651;28;20378;-76
2023/12/01 10:34:21;;;;;;;27.75;17.38;;;2.60;47.50;;;;;;5097101;28;20386;-75
2023/12/01 10:36:47;;;;;;;27.90;18.80;;;2.60;45.00;;;;;;5093723;28;20754;-74
2023/12/01 10:39:16;;;;;;;30.95;18.73;;;2.40;47.30;;;;;;5092577;28;20405;-75
2023/12/01 10:41:44;;;;;;;28.75;18.60;;;2.70;46.30;;;;;;5092112;28;20378;-75
2023/12/01 10:44:14;;;;;;;29.98;19.52;;;2.80;42.70;;;;;;5091855;28;20393;-76
2023/12/01 10:46:40;;;;;;;30.92;19.42;;;2.80;44.50;;;;;;5092294;28;20376;-76
2023/12/01 10:49:07;;;;;;;31.25;20.05;;;3.10;44.00;;;;;;5092262;28;20725;-75
2023/12/01 10:51:33;;;;;;;30.80;20.37;;;2.90;44.30;;;;;;5091419;28;20414;-76
2023/12/01 10:54:00;;;;;;;33.17;20.67;;;2.60;45.60;;;;;;5091449;28;20901;-77
2023/12/01 10:56:29;;;;;;;32.80;20.60;;;2.80;45.60;;;;;;5093006;28;20868;-75
2023/12/01 10:58:58;;;;;;;33.67;20.33;;;2.80;44.40;;;;;;5092509;28;20461;-74
2023/12/01 11:01:25;;;;;;;33.95;20.80;;;2.90;42.90;;;;;;5092625;28;20453;-76
2023/12/01 11:03:52;;;;;;;35.00;21.75;;;3.00;42.40;;;;;;5092816;28;20849;-76
2023/12/01 11:06:49;;;;;;;32.60;21.92;;;3.20;41.80;;;;;;5092766;28;20781;-75
2023/12/01 11:10:12;;;;;;;44.80;25.88;;;3.20;40.90;;;;;;5093971;28;20377;-75
2023/12/01 11:12:53;;;;;;;39.53;24.75;;;3.30;39.80;;;;;;5024357;28;20412;-75
2023/12/01 11:15:23;;;;;;;43.65;26.55;;;3.20;41.70;;;;;;5099204;28;20397;-75
2023/12/01 11:17:50;;;;;;;40.65;24.83;;;2.90;41.50;;;;;;5100594;28;20377;-75
2023/12/01 11:20:32;;;;;;;39.95;24.40;;;3.10;43.00;;;;;;5099059;28;20405;-75
2023/12/01 11:23:10;;;;;;;46.65;26.48;;;3.20;41.00;;;;;;5096681;28;20378;-75
2023/12/01 11:25:48;;;;;;;45.53;26.63;;;3.30;40.30;;;;;;5093726;28;20745;-77
2023/12/01 11:31:08;;;;;;;45.47;27.75;;;3.30;40.80;;;;;;5091016;28;20872;-75
2023/12/01 11:33:48;;;;;;;43.70;28.70;;;3.30;40.30;;;;;;5091226;28;20522;-76
2023/12/01 11:36:21;;;;;;;45.55;27.75;;;3.20;41.50;;;;;;5093121;28;20872;-75
2023/12/01 11:39:17;;;;;;;43.10;27.02;;;3.30;39.40;;;;;;5095407;28;20378;-74
2023/12/01 11:41:47;;;;;;;42.72;27.73;;;3.20;38.90;;;;;;5089435;28;20386;-75
2023/12/01 11:44:20;;;;;;;47.63;28.70;;;3.20;39.50;;;;;;5105146;28;20369;-75
2023/12/01 11:46:47;;;;;;;44.30;28.60;;;3.20;40.70;;;;;;5100376;28;20382;-76
2023/12/01 11:49:14;;;;;;;44.38;28.27;;;3.20;39.90;;;;;;5078001;28;20725;-76
2023/12/01 11:51:43;;;;;;;45.47;27.95;;;3.20;39.70;;;;;;5095256;28;20489;-76
2023/12/01 11:54:11;;;;;;;46.83;28.50;;;3.00;41.30;;;;;;5095968;28;20410;-76
2023/12/01 11:56:37;;;;;;;43.97;27.95;;;3.00;40.80;;;;;;5096649;28;20382;-76
2023/12/01 11:59:02;;;;;;;41.15;26.73;;;3.10;39.90;;;;;;5097210;28;20381;-77
2023/12/01 12:01:30;;;;;;;43.57;27.40;;;3.20;39.30;;;;;;5104042;28;20388;-76
2023/12/01 12:03:57;;;;;;;43.22;26.35;;;3.20;39.50;;;;;;5116729;28;20406;-75
2023/12/01 12:06:24;;;;;;;46.37;27.80;;;3.20;38.80;;;;;;5112861;28;20378;-76
2023/12/01 12:08:53;;;;;;;43.80;27.97;;;3.10;40.00;;;;;;5100412;28;20394;-76
2023/12/01 12:11:19;;;;;;;45.90;28.75;;;2.80;40.50;;;;;;5095092;28;20744;-77
2023/12/01 12:13:55;;;;;;;43.92;27.92;;;2.60;43.20;;;;;;5095365;28;20390;-77
2023/12/01 12:16:23;;;;;;;47.25;29.50;;;2.60;44.80;;;;;;5095133;28;20393;-75
2023/12/01 12:18:49;;;;;;;47.85;28.77;;;2.40;44.90;;;;;;5097133;28;20378;-75
2023/12/01 12:21:15;;;;;;;44.43;28.83;;;2.40;46.80;;;;;;5095402;28;20374;-75
2023/12/01 12:23:41;;;;;;;50.05;30.67;;;2.60;45.90;;;;;;5096484;28;20384;-76
2023/12/01 12:26:23;;;;;;;47.43;30.43;;;2.80;43.80;;;;;;5077002;28;20822;-77
2023/12/01 12:28:57;;;;;;;49.08;30.42;;;2.90;45.60;;;;;;5094394;28;20439;-75
2023/12/01 12:31:29;;;;;;;49.55;31.40;;;2.80;46.50;;;;;;5094824;28;20370;-77
2023/12/01 12:33:58;;;;;;;49.55;31.08;;;2.80;45.70;;;;;;5094946;28;20378;-76
2023/12/01 12:36:30;;;;;;;48.58;30.83;;;2.90;46.90;;;;;;5093369;28;20378;-75
2023/12/01 12:39:01;;;;;;;46.73;31.50;;;3.00;45.70;;;;;;5075679;28;20607;-76